sensor_id;sensor_type;location;lat;lon;timestamp;pressure;altitude;pressure_sealevel;temperature;humidity
49843;BME280;55559;48.898;9.184;2023-02-22T00:01:31;98378.44;;;4.65;100.00
49843;BME280;55559;48.898;9.184;2023-02-22T00:04:04;98380.34;;;4.63;100.00
49843;BME280;55559;48.898;9.184;2023-02-22T00:06:33;98373.38;;;4.62;100.00
49843;BME280;55559;48.898;9.184;2023-02-22T00:09:01;98375.25;;;4.60;100.00
49843;BME280;55559;48.898;9.184;2023-02-22T00:11:28;98372.72;;;4.58;100.00
49843;BME280;55559;48.898;9.184;2023-02-22T00:13:57;98367.03;;;4.52;100.00
49843;BME280;55559;48.898;9.184;2023-02-22T00:16:25;98364.59;;;4.48;100.00
49843;BME280;55559;48.898;9.184;2023-02-22T00:18:53;98367.44;;;4.45;100.00
49843;BME280;55559;48.898;9.184;2023-02-22T00:21:20;98360.81;;;4.53;100.00
49843;BME280;55559;48.898;9.184;2023-02-22T00:23:49;98361.22;;;4.46;100.00
49843;BME280;55559;48.898;9.184;2023-02-22T00:26:20;98353.31;;;4.46;100.00
49843;BME280;55559;48.898;9.184;2023-02-22T00:28:50;98346.56;;;4.42;100.00
49843;BME280;55559;48.898;9.184;2023-02-22T00:31:18;98351.94;;;4.41;100.00
49843;BME280;55559;48.898;9.184;2023-02-22T00:33:46;98349.50;;;4.38;100.00
49843;BME280;55559;48.898;9.184;2023-02-22T00:36:14;98353.50;;;4.31;100.00
49843;BME280;55559;48.898;9.184;2023-02-22T00:38:41;98347.50;;;4.28;100.00
49843;BME280;55559;48.898;9.184;2023-02-22T00:41:10;98347.88;;;4.22;100.00
49843;BME280;55559;48.898;9.184;2023-02-22T00:43:38;98349.56;;;4.23;100.00
49843;BME280;55559;48.898;9.184;2023-02-22T00:46:06;98343.88;;;4.17;100.00
49843;BME280;55559;48.898;9.184;2023-02-22T00:48:33;98361.38;;;4.03;100.00
49843;BME280;55559;48.898;9.184;2023-02-22T00:51:01;98352.53;;;4.04;100.00
49843;BME280;55559;48.898;9.184;2023-02-22T00:53:28;98343.25;;;3.99;100.00
49843;BME280;55559;48.898;9.184;2023-02-22T00:55:56;98348.69;;;3.96;100.00
49843;BME280;55559;48.898;9.184;2023-02-22T00:58:25;98353.03;;;3.97;100.00
49843;BME280;55559;48.898;9.184;2023-02-22T01:00:56;98345.78;;;4.00;100.00
49843;BME280;55559;48.898;9.184;2023-02-22T01:03:24;98341.44;;;4.14;100.00
49843;BME280;55559;48.898;9.184;2023-02-22T01:05:51;98337.25;;;4.24;100.00
49843;BME280;55559;48.898;9.184;2023-02-22T01:08:19;98337.50;;;4.46;100.00
49843;BME280;55559;48.898;9.184;2023-02-22T01:10:46;98321.03;;;4.57;100.00
49843;BME280;55559;48.898;9.184;2023-02-22T01:13:14;98329.03;;;4.69;100.00
49843;BME280;55559;48.898;9.184;2023-02-22T01:15:44;98330.00;;;4.68;100.00
49843;BME280;55559;48.898;9.184;2023-02-22T01:18:12;98319.34;;;4.69;100.00
49843;BME280;55559;48.898;9.184;2023-02-22T01:20:41;98315.25;;;4.91;100.00
49843;BME280;55559;48.898;9.184;2023-02-22T01:23:14;98314.84;;;4.97;100.00
49843;BME280;55559;48.898;9.184;2023-02-22T01:25:42;98315.38;;;5.02;100.00
49843;BME280;55559;48.898;9.184;2023-02-22T01:28:12;98310.31;;;4.99;100.00
49843;BME280;55559;48.898;9.184;2023-02-22T01:30:41;98306.94;;;4.97;100.00
49843;BME280;55559;48.898;9.184;2023-02-22T01:33:10;98308.94;;;4.93;100.00
49843;BME280;55559;48.898;9.184;2023-02-22T01:35:43;98309.66;;;4.95;100.00
49843;BME280;55559;48.898;9.184;2023-02-22T01:38:10;98306.63;;;5.01;100.00
49843;BME280;55559;48.898;9.184;2023-02-22T01:40:40;98306.63;;;5.01;100.00
49843;BME280;55559;48.898;9.184;2023-02-22T01:43:19;98305.56;;;5.04;100.00
49843;BME280;55559;48.898;9.184;2023-02-22T01:45:56;98304.09;;;5.00;100.00
49843;BME280;55559;48.898;9.184;2023-02-22T01:48:40;98292.28;;;4.93;100.00
49843;BME280;55559;48.898;9.184;2023-02-22T01:51:12;98295.66;;;4.95;100.00
49843;BME280;55559;48.898;9.184;2023-02-22T01:53:44;98294.50;;;4.99;100.00
49843;BME280;55559;48.898;9.184;2023-02-22T01:56:14;98288.50;;;4.97;100.00
49843;BME280;55559;48.898;9.184;2023-02-22T01:58:45;98292.09;;;4.96;100.00
49843;BME280;55559;48.898;9.184;2023-02-22T02:01:15;98287.22;;;4.90;100.00
49843;BME280;55559;48.898;9.184;2023-02-22T02:03:45;98273.09;;;4.91;100.00
49843;BME280;55559;48.898;9.184;2023-02-22T02:06:15;98273.22;;;4.89;100.00
49843;BME280;55559;48.898;9.184;2023-02-22T02:08:51;98277.19;;;4.82;100.00
49843;BME280;55559;48.898;9.184;2023-02-22T02:11:23;98268.47;;;4.81;100.00
49843;BME280;55559;48.898;9.184;2023-02-22T02:13:54;98276.91;;;4.87;100.00
49843;BME280;55559;48.898;9.184;2023-02-22T02:16:23;98270.06;;;4.84;100.00
49843;BME280;55559;48.898;9.184;2023-02-22T02:18:53;98264.91;;;4.82;100.00
49843;BME280;55559;48.898;9.184;2023-02-22T02:21:39;98263.41;;;4.78;100.00
49843;BME280;55559;48.898;9.184;2023-02-22T02:24:40;98259.84;;;4.79;100.00
49843;BME280;55559;48.898;9.184;2023-02-22T02:27:18;98266.03;;;4.78;100.00
49843;BME280;55559;48.898;9.184;2023-02-22T02:32:51;98251.19;;;4.77;100.00
49843;BME280;55559;48.898;9.184;2023-02-22T02:35:28;98255.50;;;4.78;100.00
49843;BME280;55559;48.898;9.184;2023-02-22T02:38:03;98242.13;;;4.81;100.00
49843;BME280;55559;48.898;9.184;2023-02-22T02:40:38;98241.50;;;4.78;100.00
49843;BME280;55559;48.898;9.184;2023-02-22T02:43:14;98246.13;;;4.74;100.00
49843;BME280;55559;48.898;9.184;2023-02-22T02:45:46;98239.91;;;4.75;100.00
49843;BME280;55559;48.898;9.184;2023-02-22T02:48:20;98232.66;;;4.66;100.00
49843;BME280;55559;48.898;9.184;2023-02-22T02:50:50;98225.25;;;4.58;100.00
49843;BME280;55559;48.898;9.184;2023-02-22T02:53:33;98234.84;;;4.59;100.00
49843;BME280;55559;48.898;9.184;2023-02-22T02:56:02;98238.63;;;4.55;100.00
49843;BME280;55559;48.898;9.184;2023-02-22T02:58:30;98239.50;;;4.56;100.00
49843;BME280;55559;48.898;9.184;2023-02-22T03:01:00;98232.81;;;4.50;100.00
49843;BME280;55559;48.898;9.184;2023-02-22T03:03:56;98226.44;;;4.54;100.00
49843;BME280;55559;48.898;9.184;2023-02-22T03:06:52;98230.28;;;4.48;100.00
49843;BME280;55559;48.898;9.184;2023-02-22T03:09:34;98227.25;;;4.55;100.00
49843;BME280;55559;48.898;9.184;2023-02-22T03:12:15;98220.63;;;4.49;100.00
49843;BME280;55559;48.898;9.184;2023-02-22T03:14:53;98218.63;;;4.53;100.00
49843;BME280;55559;48.898;9.184;2023-02-22T03:17:37;98206.28;;;4.53;100.00
49843;BME280;55559;48.898;9.184;2023-02-22T03:20:12;98206.72;;;4.47;100.00
49843;BME280;55559;48.898;9.184;2023-02-22T03:22:47;98216.31;;;4.48;100.00
49843;BME280;55559;48.898;9.184;2023-02-22T03:25:23;98207.66;;;4.46;100.00
49843;BME280;55559;48.898;9.184;2023-02-22T03:28:00;98207.66;;;4.46;100.00
49843;BME280;55559;48.898;9.184;2023-02-22T03:30:33;98198.31;;;4.42;100.00
49843;BME280;55559;48.898;9.184;2023-02-22T03:33:08;98203.88;;;4.37;100.00
49843;BME280;55559;48.898;9.184;2023-02-22T03:35:41;98207.88;;;4.43;100.00
49843;BME280;55559;48.898;9.184;2023-02-22T03:38:15;98197.13;;;4.46;100.00
49843;BME280;55559;48.898;9.184;2023-02-22T03:40:49;98199.88;;;4.44;100.00
49843;BME280;55559;48.898;9.184;2023-02-22T03:43:24;98199.97;;;4.43;100.00
49843;BME280;55559;48.898;9.184;2023-02-22T03:45:57;98194.81;;;4.41;100.00
49843;BME280;55559;48.898;9.184;2023-02-22T03:48:31;98201.97;;;4.39;100.00
49843;BME280;55559;48.898;9.184;2023-02-22T03:51:05;98194.38;;;4.35;100.00
49843;BME280;55559;48.898;9.184;2023-02-22T03:53:34;98197.00;;;4.35;100.00
49843;BME280;55559;48.898;9.184;2023-02-22T03:56:06;98199.34;;;4.39;100.00
49843;BME280;55559;48.898;9.184;2023-02-22T03:58:36;98191.13;;;4.44;100.00
49843;BME280;55559;48.898;9.184;2023-02-22T04:01:05;98193.88;;;4.42;100.00
49843;BME280;55559;48.898;9.184;2023-02-22T04:03:33;98195.53;;;4.43;100.00
49843;BME280;55559;48.898;9.184;2023-02-22T04:06:01;98199.34;;;4.39;100.00
49843;BME280;55559;48.898;9.184;2023-02-22T04:08:30;98197.44;;;4.41;100.00
49843;BME280;55559;48.898;9.184;2023-02-22T04:10:58;98199.88;;;4.44;100.00
49843;BME280;55559;48.898;9.184;2023-02-22T04:13:27;98205.88;;;4.46;100.00
49843;BME280;55559;48.898;9.184;2023-02-22T04:15:57;98196.81;;;4.38;100.00
49843;BME280;55559;48.898;9.184;2023-02-22T04:18:25;98208.72;;;4.31;100.00
49843;BME280;55559;48.898;9.184;2023-02-22T04:20:53;98195.66;;;4.29;100.00
49843;BME280;55559;48.898;9.184;2023-02-22T04:23:31;98197.88;;;4.35;100.00
49843;BME280;55559;48.898;9.184;2023-02-22T04:25:58;98192.63;;;4.35;100.00
49843;BME280;55559;48.898;9.184;2023-02-22T04:28:26;98189.84;;;4.37;100.00
49843;BME280;55559;48.898;9.184;2023-02-22T04:31:04;98186.59;;;4.33;100.00
49843;BME280;55559;48.898;9.184;2023-02-22T04:33:32;98184.72;;;4.35;100.00
49843;BME280;55559;48.898;9.184;2023-02-22T04:35:59;98190.09;;;4.34;100.00
49843;BME280;55559;48.898;9.184;2023-02-22T04:38:32;98191.84;;;4.33;100.00
49843;BME280;55559;48.898;9.184;2023-02-22T04:41:00;98187.44;;;4.34;100.00
49843;BME280;55559;48.898;9.184;2023-02-22T04:43:27;98189.97;;;4.35;100.00
49843;BME280;55559;48.898;9.184;2023-02-22T04:46:04;98183.78;;;4.49;100.00
49843;BME280;55559;48.898;9.184;2023-02-22T04:48:33;98185.78;;;4.45;100.00
49843;BME280;55559;48.898;9.184;2023-02-22T04:51:00;98181.25;;;4.47;100.00
49843;BME280;55559;48.898;9.184;2023-02-22T04:53:29;98181.44;;;4.44;100.00
49843;BME280;55559;48.898;9.184;2023-02-22T04:55:59;98181.84;;;4.38;100.00
49843;BME280;55559;48.898;9.184;2023-02-22T04:58:26;98183.44;;;4.41;100.00
49843;BME280;55559;48.898;9.184;2023-02-22T05:00:56;98182.06;;;4.48;100.00
49843;BME280;55559;48.898;9.184;2023-02-22T05:03:25;98180.81;;;4.41;100.00
49843;BME280;55559;48.898;9.184;2023-02-22T05:05:53;98183.34;;;4.42;100.00
49843;BME280;55559;48.898;9.184;2023-02-22T05:08:21;98176.28;;;4.43;100.00
49843;BME280;55559;48.898;9.184;2023-02-22T05:10:48;98178.91;;;4.43;100.00
49843;BME280;55559;48.898;9.184;2023-02-22T05:13:17;98171.00;;;4.43;100.00
49843;BME280;55559;48.898;9.184;2023-02-22T05:15:45;98171.56;;;4.35;100.00
49843;BME280;55559;48.898;9.184;2023-02-22T05:18:14;98171.41;;;4.37;100.00
49843;BME280;55559;48.898;9.184;2023-02-22T05:20:42;98168.16;;;4.33;100.00
49843;BME280;55559;48.898;9.184;2023-02-22T05:23:10;98167.75;;;4.39;100.00
49843;BME280;55559;48.898;9.184;2023-02-22T05:25:37;98163.97;;;4.31;100.00
49843;BME280;55559;48.898;9.184;2023-02-22T05:28:10;98167.53;;;4.29;100.00
49843;BME280;55559;48.898;9.184;2023-02-22T05:30:40;98166.91;;;4.26;100.00
49843;BME280;55559;48.898;9.184;2023-02-22T05:33:08;98168.69;;;4.25;100.00
49843;BME280;55559;48.898;9.184;2023-02-22T05:35:36;98165.88;;;4.28;100.00
49843;BME280;55559;48.898;9.184;2023-02-22T05:38:05;98157.00;;;4.29;100.00
49843;BME280;55559;48.898;9.184;2023-02-22T05:40:33;98156.16;;;4.29;100.00
49843;BME280;55559;48.898;9.184;2023-02-22T05:43:01;98167.72;;;4.26;100.00
49843;BME280;55559;48.898;9.184;2023-02-22T05:45:29;98157.97;;;4.28;100.00
49843;BME280;55559;48.898;9.184;2023-02-22T05:47:59;98162.47;;;4.26;100.00
49843;BME280;55559;48.898;9.184;2023-02-22T05:50:27;98159.94;;;4.25;100.00
49843;BME280;55559;48.898;9.184;2023-02-22T05:52:55;98169.63;;;4.24;100.00
49843;BME280;55559;48.898;9.184;2023-02-22T05:55:23;98159.75;;;4.28;100.00
49843;BME280;55559;48.898;9.184;2023-02-22T05:57:52;98156.47;;;4.24;100.00
49843;BME280;55559;48.898;9.184;2023-02-22T06:00:22;98153.13;;;4.22;100.00
49843;BME280;55559;48.898;9.184;2023-02-22T06:02:55;98156.78;;;4.20;100.00
49843;BME280;55559;48.898;9.184;2023-02-22T06:05:24;98153.41;;;4.18;100.00
49843;BME280;55559;48.898;9.184;2023-02-22T06:07:53;98156.06;;;4.18;100.00
49843;BME280;55559;48.898;9.184;2023-02-22T06:10:22;98161.84;;;4.23;100.00
49843;BME280;55559;48.898;9.184;2023-02-22T06:12:50;98152.38;;;4.20;100.00
49843;BME280;55559;48.898;9.184;2023-02-22T06:15:18;98155.00;;;4.20;100.00
49843;BME280;55559;48.898;9.184;2023-02-22T06:17:47;98160.28;;;4.20;100.00
49843;BME280;55559;48.898;9.184;2023-02-22T06:20:17;98163.53;;;4.24;100.00
49843;BME280;55559;48.898;9.184;2023-02-22T06:22:47;98162.03;;;4.20;100.00
49843;BME280;55559;48.898;9.184;2023-02-22T06:25:17;98159.31;;;4.21;100.00
49843;BME280;55559;48.898;9.184;2023-02-22T06:27:45;98163.53;;;4.24;100.00
49843;BME280;55559;48.898;9.184;2023-02-22T06:30:14;98168.69;;;4.25;100.00
49843;BME280;55559;48.898;9.184;2023-02-22T06:32:42;98175.97;;;4.35;100.00
49843;BME280;55559;48.898;9.184;2023-02-22T06:35:10;98177.66;;;4.36;100.00
49843;BME280;55559;48.898;9.184;2023-02-22T06:37:38;98174.19;;;4.35;100.00
49843;BME280;55559;48.898;9.184;2023-02-22T06:40:08;98174.91;;;4.37;100.00
49843;BME280;55559;48.898;9.184;2023-02-22T06:42:37;98177.44;;;4.39;100.00
49843;BME280;55559;48.898;9.184;2023-02-22T06:45:04;98175.53;;;4.41;100.00
49843;BME280;55559;48.898;9.184;2023-02-22T06:47:32;98184.81;;;4.46;100.00
49843;BME280;55559;48.898;9.184;2023-02-22T06:49:59;98183.66;;;4.51;100.00
49843;BME280;55559;48.898;9.184;2023-02-22T06:52:27;98188.28;;;4.60;100.00
49843;BME280;55559;48.898;9.184;2023-02-22T06:54:54;98182.59;;;4.66;100.00
49843;BME280;55559;48.898;9.184;2023-02-22T06:57:23;98179.31;;;4.75;100.00
49843;BME280;55559;48.898;9.184;2023-02-22T06:59:50;98181.44;;;4.83;100.00
49843;BME280;55559;48.898;9.184;2023-02-22T07:02:18;98181.22;;;4.86;100.00
49843;BME280;55559;48.898;9.184;2023-02-22T07:04:45;98183.66;;;4.89;100.00
49843;BME280;55559;48.898;9.184;2023-02-22T07:07:13;98191.00;;;4.97;100.00
49843;BME280;55559;48.898;9.184;2023-02-22T07:09:40;98183.50;;;5.03;100.00
49843;BME280;55559;48.898;9.184;2023-02-22T07:12:08;98191.59;;;5.13;100.00
49843;BME280;55559;48.898;9.184;2023-02-22T07:14:37;98185.91;;;5.19;100.00
49843;BME280;55559;48.898;9.184;2023-02-22T07:17:04;98187.03;;;5.28;100.00
49843;BME280;55559;48.898;9.184;2023-02-22T07:19:32;98196.06;;;5.37;100.00
49843;BME280;55559;48.898;9.184;2023-02-22T07:21:59;98191.63;;;5.37;100.00
49843;BME280;55559;48.898;9.184;2023-02-22T07:24:27;98195.63;;;5.43;100.00
49843;BME280;55559;48.898;9.184;2023-02-22T07:26:55;98196.66;;;5.53;100.00
49843;BME280;55559;48.898;9.184;2023-02-22T07:29:22;98199.69;;;5.60;100.00
49843;BME280;55559;48.898;9.184;2023-02-22T07:31:51;98193.53;;;5.59;100.00
49843;BME280;55559;48.898;9.184;2023-02-22T07:34:18;98202.56;;;5.68;100.00
49843;BME280;55559;48.898;9.184;2023-02-22T07:36:46;98204.06;;;5.72;100.00
49843;BME280;55559;48.898;9.184;2023-02-22T07:39:13;98205.00;;;5.71;100.00
49843;BME280;55559;48.898;9.184;2023-02-22T07:41:41;98201.41;;;5.72;100.00
49843;BME280;55559;48.898;9.184;2023-02-22T07:44:21;98206.88;;;5.82;100.00
49843;BME280;55559;48.898;9.184;2023-02-22T07:46:48;98204.13;;;5.84;100.00
49843;BME280;55559;48.898;9.184;2023-02-22T07:49:17;98205.06;;;5.83;100.00
49843;BME280;55559;48.898;9.184;2023-02-22T07:51:45;98211.28;;;5.82;100.00
49843;BME280;55559;48.898;9.184;2023-02-22T07:54:12;98206.50;;;5.87;100.00
49843;BME280;55559;48.898;9.184;2023-02-22T07:56:44;98207.88;;;5.92;100.00
49843;BME280;55559;48.898;9.184;2023-02-22T07:59:12;98212.31;;;5.92;100.00
49843;BME280;55559;48.898;9.184;2023-02-22T08:01:39;98213.56;;;5.99;100.00
49843;BME280;55559;48.898;9.184;2023-02-22T08:04:07;98210.34;;;6.07;100.00
49843;BME280;55559;48.898;9.184;2023-02-22T08:06:36;98198.94;;;6.06;100.00
49843;BME280;55559;48.898;9.184;2023-02-22T08:09:03;98209.63;;;6.05;100.00
49843;BME280;55559;48.898;9.184;2023-02-22T08:11:31;98206.59;;;5.98;100.00
49843;BME280;55559;48.898;9.184;2023-02-22T08:13:58;98205.56;;;5.88;100.00
49843;BME280;55559;48.898;9.184;2023-02-22T08:16:26;98209.03;;;5.88;100.00
49843;BME280;55559;48.898;9.184;2023-02-22T08:18:53;98203.47;;;5.80;100.00
49843;BME280;55559;48.898;9.184;2023-02-22T08:21:20;98202.31;;;5.84;100.00
49843;BME280;55559;48.898;9.184;2023-02-22T08:23:51;98198.13;;;5.93;100.00
49843;BME280;55559;48.898;9.184;2023-02-22T08:26:20;98204.56;;;6.02;100.00
49843;BME280;55559;48.898;9.184;2023-02-22T08:28:50;98200.47;;;5.98;100.00
49843;BME280;55559;48.898;9.184;2023-02-22T08:31:17;98208.59;;;5.94;100.00
49843;BME280;55559;48.898;9.184;2023-02-22T08:33:46;98209.69;;;5.92;100.00
49843;BME280;55559;48.898;9.184;2023-02-22T08:36:14;98202.19;;;6.10;100.00
49843;BME280;55559;48.898;9.184;2023-02-22T08:38:43;98189.09;;;6.08;100.00
49843;BME280;55559;48.898;9.184;2023-02-22T08:41:12;98197.13;;;6.31;100.00
49843;BME280;55559;48.898;9.184;2023-02-22T08:43:39;98200.25;;;6.47;100.00
49843;BME280;55559;48.898;9.184;2023-02-22T08:46:07;98194.28;;;6.57;100.00
49843;BME280;55559;48.898;9.184;2023-02-22T08:48:34;98196.56;;;6.73;100.00
49843;BME280;55559;48.898;9.184;2023-02-22T08:51:02;98197.16;;;6.76;100.00
49843;BME280;55559;48.898;9.184;2023-02-22T08:53:29;98185.88;;;6.85;100.00
49843;BME280;55559;48.898;9.184;2023-02-22T08:55:57;98197.78;;;7.02;100.00
49843;BME280;55559;48.898;9.184;2023-02-22T08:58:26;98195.38;;;7.11;100.00
49843;BME280;55559;48.898;9.184;2023-02-22T09:00:54;98193.25;;;7.48;100.00
49843;BME280;55559;48.898;9.184;2023-02-22T09:03:21;98193.38;;;7.58;100.00
49843;BME280;55559;48.898;9.184;2023-02-22T09:05:49;98195.00;;;7.70;100.00
49843;BME280;55559;48.898;9.184;2023-02-22T09:08:17;98188.66;;;7.94;100.00
49843;BME280;55559;48.898;9.184;2023-02-22T09:10:44;98185.47;;;8.11;100.00
49843;BME280;55559;48.898;9.184;2023-02-22T09:13:12;98187.00;;;8.14;100.00
49843;BME280;55559;48.898;9.184;2023-02-22T09:15:41;98179.97;;;8.24;100.00
49843;BME280;55559;48.898;9.184;2023-02-22T09:18:11;98188.44;;;8.39;100.00
49843;BME280;55559;48.898;9.184;2023-02-22T09:20:39;98188.31;;;8.41;100.00
49843;BME280;55559;48.898;9.184;2023-02-22T09:23:08;98185.66;;;8.52;100.00
49843;BME280;55559;48.898;9.184;2023-02-22T09:25:36;98182.88;;;8.53;100.00
49843;BME280;55559;48.898;9.184;2023-02-22T09:28:05;98184.00;;;8.61;100.00
49843;BME280;55559;48.898;9.184;2023-02-22T09:30:35;98179.47;;;8.72;100.00
49843;BME280;55559;48.898;9.184;2023-02-22T09:33:06;98179.09;;;8.77;100.00
49843;BME280;55559;48.898;9.184;2023-02-22T09:35:34;98187.19;;;8.85;100.00
49843;BME280;55559;48.898;9.184;2023-02-22T09:38:03;98182.94;;;9.04;100.00
49843;BME280;55559;48.898;9.184;2023-02-22T09:40:33;98174.47;;;9.10;100.00
49843;BME280;55559;48.898;9.184;2023-02-22T09:46:11;98169.94;;;9.51;100.00
49843;BME280;55559;48.898;9.184;2023-02-22T09:48:54;98169.44;;;9.77;100.00
49843;BME280;55559;48.898;9.184;2023-02-22T09:51:26;98168.44;;;9.78;100.00
49843;BME280;55559;48.898;9.184;2023-02-22T09:53:57;98159.63;;;10.06;100.00
49843;BME280;55559;48.898;9.184;2023-02-22T09:56:28;98159.63;;;10.26;100.00
49843;BME280;55559;48.898;9.184;2023-02-22T09:59:00;98152.22;;;10.20;100.00
49843;BME280;55559;48.898;9.184;2023-02-22T10:01:32;98154.72;;;10.31;100.00
49843;BME280;55559;48.898;9.184;2023-02-22T10:04:10;98154.66;;;10.70;100.00
49843;BME280;55559;48.898;9.184;2023-02-22T10:06:56;98156.47;;;10.79;100.00
49843;BME280;55559;48.898;9.184;2023-02-22T10:09:32;98159.13;;;11.07;100.00
49843;BME280;55559;48.898;9.184;2023-02-22T10:12:07;98155.00;;;11.50;100.00
49843;BME280;55559;48.898;9.184;2023-02-22T10:14:46;98151.34;;;11.69;100.00
49843;BME280;55559;48.898;9.184;2023-02-22T10:17:23;98147.91;;;11.59;100.00
49843;BME280;55559;48.898;9.184;2023-02-22T10:20:06;98142.34;;;11.88;100.00
49843;BME280;55559;48.898;9.184;2023-02-22T10:23:01;98140.31;;;11.82;100.00
49843;BME280;55559;48.898;9.184;2023-02-22T10:25:34;98151.28;;;12.15;100.00
49843;BME280;55559;48.898;9.184;2023-02-22T10:28:09;98144.97;;;11.98;100.00
49843;BME280;55559;48.898;9.184;2023-02-22T10:30:42;98142.09;;;12.36;97.14
49843;BME280;55559;48.898;9.184;2023-02-22T10:33:17;98138.28;;;12.64;95.50
49843;BME280;55559;48.898;9.184;2023-02-22T10:35:50;98139.72;;;12.77;94.25
49843;BME280;55559;48.898;9.184;2023-02-22T10:38:20;98137.28;;;12.13;98.20
49843;BME280;55559;48.898;9.184;2023-02-22T10:40:50;98126.88;;;12.54;95.88
49843;BME280;55559;48.898;9.184;2023-02-22T10:43:19;98129.59;;;12.62;95.85
49843;BME280;55559;48.898;9.184;2023-02-22T10:45:49;98133.66;;;12.75;93.08
49843;BME280;55559;48.898;9.184;2023-02-22T10:48:19;98129.00;;;12.69;92.71
49843;BME280;55559;48.898;9.184;2023-02-22T10:50:48;98135.31;;;12.68;93.45
49843;BME280;55559;48.898;9.184;2023-02-22T10:53:19;98128.78;;;12.62;90.26
49843;BME280;55559;48.898;9.184;2023-02-22T10:56:10;98135.66;;;12.20;94.38
49843;BME280;55559;48.898;9.184;2023-02-22T10:58:43;98125.13;;;12.37;92.51
49843;BME280;55559;48.898;9.184;2023-02-22T11:01:26;98129.13;;;12.15;96.20
49843;BME280;55559;48.898;9.184;2023-02-22T11:04:00;98119.50;;;12.22;96.44
49843;BME280;55559;48.898;9.184;2023-02-22T11:06:31;98120.34;;;12.22;96.16
49843;BME280;55559;48.898;9.184;2023-02-22T11:09:08;98120.41;;;12.04;98.61
49843;BME280;55559;48.898;9.184;2023-02-22T11:11:38;98123.44;;;12.09;98.21
49843;BME280;55559;48.898;9.184;2023-02-22T11:14:06;98119.66;;;12.20;98.87
49843;BME280;55559;48.898;9.184;2023-02-22T11:16:38;98116.53;;;12.25;97.51
49843;BME280;55559;48.898;9.184;2023-02-22T11:19:15;98122.88;;;12.50;93.78
49843;BME280;55559;48.898;9.184;2023-02-22T11:21:47;98112.69;;;12.80;91.77
49843;BME280;55559;48.898;9.184;2023-02-22T11:24:19;98113.28;;;12.65;92.52
49843;BME280;55559;48.898;9.184;2023-02-22T11:26:50;98109.31;;;13.04;90.19
49843;BME280;55559;48.898;9.184;2023-02-22T11:29:22;98112.88;;;12.87;89.48
49843;BME280;55559;48.898;9.184;2023-02-22T11:31:51;98105.06;;;12.85;89.89
49843;BME280;55559;48.898;9.184;2023-02-22T11:34:29;98101.38;;;13.20;91.85
49843;BME280;55559;48.898;9.184;2023-02-22T11:37:15;98093.66;;;13.17;85.85
49843;BME280;55559;48.898;9.184;2023-02-22T11:39:43;98100.81;;;13.68;94.07
49843;BME280;55559;48.898;9.184;2023-02-22T11:42:20;98090.28;;;13.50;83.66
49843;BME280;55559;48.898;9.184;2023-02-22T11:44:48;98097.28;;;13.59;84.89
49843;BME280;55559;48.898;9.184;2023-02-22T11:47:34;98095.28;;;13.53;83.29
49843;BME280;55559;48.898;9.184;2023-02-22T11:50:09;98090.00;;;13.27;86.18
49843;BME280;55559;48.898;9.184;2023-02-22T11:52:50;98086.44;;;13.61;88.18
49843;BME280;55559;48.898;9.184;2023-02-22T11:55:22;98084.78;;;14.25;78.68
49843;BME280;55559;48.898;9.184;2023-02-22T11:58:00;98077.56;;;14.34;77.29
49843;BME280;55559;48.898;9.184;2023-02-22T12:00:43;98078.59;;;13.67;85.55
49843;BME280;55559;48.898;9.184;2023-02-22T12:06:24;98072.50;;;13.24;88.02
49843;BME280;55559;48.898;9.184;2023-02-22T12:09:04;98068.06;;;13.49;84.98
49843;BME280;55559;48.898;9.184;2023-02-22T12:11:40;98060.06;;;13.49;85.66
49843;BME280;55559;48.898;9.184;2023-02-22T12:14:20;98053.56;;;13.60;86.69
49843;BME280;55559;48.898;9.184;2023-02-22T12:17:07;98053.72;;;13.67;85.88
49843;BME280;55559;48.898;9.184;2023-02-22T12:19:41;98049.72;;;13.63;86.78
49843;BME280;55559;48.898;9.184;2023-02-22T12:22:12;98051.03;;;13.58;87.19
49843;BME280;55559;48.898;9.184;2023-02-22T12:24:48;98042.19;;;13.50;88.03
49843;BME280;55559;48.898;9.184;2023-02-22T12:27:22;98044.53;;;13.53;88.35
49843;BME280;55559;48.898;9.184;2023-02-22T12:29:55;98042.69;;;13.45;87.53
49843;BME280;55559;48.898;9.184;2023-02-22T12:32:30;98040.53;;;13.57;88.38
49843;BME280;55559;48.898;9.184;2023-02-22T12:35:03;98037.53;;;13.68;87.58
49843;BME280;55559;48.898;9.184;2023-02-22T12:37:41;98041.50;;;13.64;88.89
49843;BME280;55559;48.898;9.184;2023-02-22T12:40:20;98044.69;;;13.43;88.09
49843;BME280;55559;48.898;9.184;2023-02-22T12:42:56;98048.16;;;13.27;89.39
49843;BME280;55559;48.898;9.184;2023-02-22T12:45:29;98038.84;;;13.39;88.65
49843;BME280;55559;48.898;9.184;2023-02-22T12:48:07;98038.50;;;13.59;84.63
49843;BME280;55559;48.898;9.184;2023-02-22T12:50:36;98033.00;;;14.02;80.19
49843;BME280;55559;48.898;9.184;2023-02-22T12:53:11;98035.44;;;14.28;78.86
49843;BME280;55559;48.898;9.184;2023-02-22T12:55:45;98026.44;;;14.21;78.72
49843;BME280;55559;48.898;9.184;2023-02-22T12:58:20;98026.41;;;14.37;78.89
49843;BME280;55559;48.898;9.184;2023-02-22T13:00:57;98025.53;;;14.61;75.73
49843;BME280;55559;48.898;9.184;2023-02-22T13:03:33;98030.75;;;14.94;73.85
49843;BME280;55559;48.898;9.184;2023-02-22T13:06:15;98028.38;;;14.60;75.61
49843;BME280;55559;48.898;9.184;2023-02-22T13:08:54;98030.69;;;14.63;77.56
49843;BME280;55559;48.898;9.184;2023-02-22T13:11:28;98022.56;;;14.31;75.30
49843;BME280;55559;48.898;9.184;2023-02-22T13:14:10;98023.34;;;14.48;75.17
49843;BME280;55559;48.898;9.184;2023-02-22T13:16:44;98017.16;;;14.64;76.68
49843;BME280;55559;48.898;9.184;2023-02-22T13:19:27;98029.09;;;14.37;82.13
49843;BME280;55559;48.898;9.184;2023-02-22T13:22:03;98020.31;;;14.68;80.72
49843;BME280;55559;48.898;9.184;2023-02-22T13:24:42;98016.13;;;14.65;81.55
49843;BME280;55559;48.898;9.184;2023-02-22T13:27:18;98024.25;;;14.32;84.60
49843;BME280;55559;48.898;9.184;2023-02-22T13:29:53;98022.06;;;14.28;84.30
49843;BME280;55559;48.898;9.184;2023-02-22T13:32:37;98022.41;;;14.25;88.24